Red Wing, Minnesota
Current Conditions -  °F | °C
As of 12:10 PM on Wednesday 28 Jan 2015 (Local Time) from KRGK Reporting Station
Haze Haze  
Wind Chill: 19°   Ceiling: 1000
Heat Index: 28°   Visibility: 3mi
Dew Point: 25°   Wind: 10mph
Humidity: 86%   Direction: 130°SE
Pressure: 29.94"   Gusts: 16mph
Location:  44.57°N, 92.53°W
Report Text: KRGK 281810Z AUTO 13009G14KT 3SM BR OVC010 M02/M04 A2994 RMK AO2
Loading
Personal Weather Stations






























Interactive Weather Map New forecast layout! Learn more

10-Day Weather Forecast

Advertisements
Track Severe Weather on mobile